Time;durP1;ratioP1;P1;durP2;ratioP2;P2;SDS_P1;SDS_P2;PMS_P1;PMS_P2;Temp;Humidity;BMP_temperature;BMP_pressure;BME280_temperature;BME280_humidity;BME280_pressure;Samples;Min_cycle;Max_cycle;Signal;HPM_P1;HPM_P2
2023/08/23 00:01:22;;;;;;;16.30;13.20;;;;;;;25.38;69.42;95121.31;5074362;28;20448;-80
2023/08/23 00:03:49;;;;;;;15.07;12.97;;;;;;;25.43;69.84;95117.97;5074114;28;20451;-80
2023/08/23 00:06:15;;;;;;;15.43;12.80;;;;;;;25.47;69.29;95117.34;5074590;28;20460;-80
2023/08/23 00:08:42;;;;;;;14.60;13.10;;;;;;;25.48;69.28;95118.16;5074050;28;20511;-81
2023/08/23 00:11:10;;;;;;;17.53;14.10;;;;;;;25.39;68.11;95112.19;5074387;28;20464;-81
2023/08/23 00:13:37;;;;;;;12.30;11.10;;;;;;;25.28;67.16;95105.66;5073980;28;20452;-80
2023/08/23 00:16:04;;;;;;;15.93;12.63;;;;;;;25.26;67.93;95120.34;5074168;28;20437;-81
2023/08/23 00:18:31;;;;;;;14.87;12.53;;;;;;;25.28;67.24;95111.03;5073804;28;20484;-80
2023/08/23 00:20:58;;;;;;;14.50;12.63;;;;;;;25.28;66.57;95120.97;5073448;28;20435;-82
2023/08/23 00:23:24;;;;;;;12.60;11.47;;;;;;;25.26;66.41;95110.44;5038197;28;20802;-81
2023/08/23 00:25:51;;;;;;;12.67;11.47;;;;;;;25.25;65.54;95111.47;5073889;28;20447;-81
2023/08/23 00:28:20;;;;;;;12.03;10.93;;;;;;;25.15;66.49;95116.47;5073453;28;20499;-80
2023/08/23 00:30:50;;;;;;;12.17;10.97;;;;;;;25.14;66.29;95114.81;5073198;28;20461;-80
2023/08/23 00:33:16;;;;;;;15.17;11.57;;;;;;;25.14;66.32;95114.00;5073376;28;20503;-80
2023/08/23 00:35:43;;;;;;;15.53;11.47;;;;;;;25.13;66.86;95115.84;5073084;28;20444;-80
2023/08/23 00:38:10;;;;;;;11.17;10.17;;;;;;;25.07;65.96;95105.97;5073646;28;20452;-80
2023/08/23 00:40:37;;;;;;;14.33;12.43;;;;;;;24.62;66.87;95116.69;5073301;28;20520;-80
2023/08/23 00:43:06;;;;;;;12.50;11.40;;;;;;;24.71;68.56;95110.03;5073108;28;20444;-81
2023/08/23 00:45:35;;;;;;;11.70;10.60;;;;;;;24.76;68.64;95122.81;5073519;28;20870;-80
2023/08/23 00:48:04;;;;;;;13.00;11.77;;;;;;;24.79;68.62;95121.56;5073626;28;20492;-81
2023/08/23 00:50:33;;;;;;;15.07;13.50;;;;;;;24.63;69.46;95118.31;5073153;28;20459;-81
2023/08/23 00:53:00;;;;;;;13.97;12.60;;;;;;;24.63;70.66;95118.31;5054496;28;20433;-80
2023/08/23 00:55:27;;;;;;;17.63;12.83;;;;;;;24.69;69.76;95112.09;5073202;28;20452;-81
2023/08/23 00:57:54;;;;;;;14.03;12.80;;;;;;;24.63;68.79;95121.00;5037758;28;20923;-80
2023/08/23 01:00:22;;;;;;;16.40;12.00;;;;;;;24.64;70.08;95116.47;5072877;28;20437;-80
2023/08/23 01:02:55;;;;;;;13.90;12.50;;;;;;;24.69;69.46;95109.41;5072783;28;20451;-81
2023/08/23 01:05:29;;;;;;;12.73;11.17;;;;;;;24.78;69.03;95111.84;5073140;28;20450;-80
2023/08/23 01:08:03;;;;;;;11.93;10.83;;;;;;;24.82;67.41;95105.03;5072944;28;20479;-80
2023/08/23 01:10:42;;;;;;;12.43;11.23;;;;;;;24.85;67.88;95102.75;5073231;28;20439;-80
2023/08/23 01:13:18;;;;;;;12.67;11.47;;;;;;;24.90;67.77;95102.94;5039880;28;20437;-81
2023/08/23 01:15:46;;;;;;;13.80;12.37;;;;;;;24.95;67.38;95110.34;5072945;28;20482;-80
2023/08/23 01:18:15;;;;;;;13.40;12.30;;;;;;;24.98;67.15;95107.25;5072601;28;20479;-81
2023/08/23 01:20:44;;;;;;;13.57;10.37;;;;;;;24.98;67.18;95101.88;5072685;28;20460;-81
2023/08/23 01:23:15;;;;;;;18.10;12.23;;;;;;;24.85;66.67;95101.91;5072462;28;20445;-81
2023/08/23 01:25:45;;;;;;;13.10;11.90;;;;;;;24.83;66.82;95106.69;5072451;28;20444;-80
2023/08/23 01:28:11;;;;;;;13.97;11.63;;;;;;;24.82;67.21;95108.53;5072732;28;20489;-80
2023/08/23 01:30:40;;;;;;;11.07;10.17;;;;;;;24.65;66.86;95116.25;5072673;28;20455;-81
2023/08/23 01:33:14;;;;;;;13.77;12.47;;;;;;;24.62;67.68;95111.31;5037208;28;20445;-81
2023/08/23 01:35:45;;;;;;;13.73;12.13;;;;;;;24.61;68.30;95108.84;5072673;28;20477;-79
2023/08/23 01:38:16;;;;;;;13.30;11.40;;;;;;;24.50;67.92;95110.28;5072754;28;20816;-80
2023/08/23 01:40:43;;;;;;;13.03;11.77;;;;;;;24.51;69.21;95103.91;5053545;28;20448;-80
2023/08/23 01:43:09;;;;;;;11.83;10.80;;;;;;;24.54;68.77;95108.84;5072517;28;20445;-80
2023/08/23 01:45:36;;;;;;;25.33;12.77;;;;;;;24.57;68.51;95105.72;5072609;28;20471;-80
2023/08/23 01:48:03;;;;;;;13.97;12.70;;;;;;;24.57;67.97;95108.41;5072014;28;20482;-80
2023/08/23 01:50:32;;;;;;;13.17;11.97;;;;;;;24.61;67.87;95106.97;5072350;28;20451;-80
2023/08/23 01:52:59;;;;;;;14.80;12.40;;;;;;;24.70;67.07;95108.38;5072475;28;20451;-81
2023/08/23 01:55:27;;;;;;;12.60;11.13;;;;;;;24.66;68.18;95099.13;5075571;28;20435;-80
2023/08/23 01:57:54;;;;;;;12.60;11.40;;;;;;;24.65;68.07;95099.31;5076679;28;20439;-81
2023/08/23 02:00:23;;;;;;;13.20;11.90;;;;;;;24.67;68.29;95095.41;5076529;28;20479;-81
2023/08/23 02:02:50;;;;;;;11.40;10.30;;;;;;;24.69;67.48;95105.91;5076229;28;20455;-80
2023/08/23 02:05:17;;;;;;;13.20;11.30;;;;;;;24.65;67.85;95104.69;5075924;28;20440;-80
2023/08/23 02:07:44;;;;;;;11.97;10.93;;;;;;;24.69;68.33;95105.91;5075898;28;20448;-79
2023/08/23 02:10:11;;;;;;;13.37;11.90;;;;;;;24.72;68.30;95100.13;5075959;28;20517;-80
2023/08/23 02:12:40;;;;;;;12.80;11.60;;;;;;;24.62;67.69;95102.44;5057032;28;20451;-81
2023/08/23 02:15:10;;;;;;;13.93;12.53;;;;;;;24.47;69.56;95102.66;5076004;28;20448;-80
2023/08/23 02:17:37;;;;;;;13.30;12.13;;;;;;;24.43;68.90;95106.00;5076278;28;20475;-80
2023/08/23 02:20:05;;;;;;;12.90;11.70;;;;;;;24.44;68.89;95103.09;5075765;28;20854;-80
2023/08/23 02:22:32;;;;;;;15.13;11.60;;;;;;;24.35;68.75;95107.88;5075549;28;20440;-80
2023/08/23 02:24:59;;;;;;;14.40;13.00;;;;;;;24.28;69.80;95106.22;5075567;28;20449;-80
2023/08/23 02:27:25;;;;;;;13.47;12.27;;;;;;;24.35;70.29;95104.38;5075690;28;20457;-80
2023/08/23 02:29:54;;;;;;;12.97;11.87;;;;;;;24.44;68.94;95104.97;5039973;28;20483;-80
2023/08/23 02:32:20;;;;;;;12.93;11.77;;;;;;;24.52;69.37;95099.34;5075182;28;20451;-81
2023/08/23 02:34:47;;;;;;;11.60;10.50;;;;;;;24.55;68.21;95091.69;5075529;28;20497;-81
2023/08/23 02:37:14;;;;;;;14.67;12.20;;;;;;;24.52;68.91;95094.81;5075320;28;20931;-82
2023/08/23 02:39:41;;;;;;;14.30;11.37;;;;;;;24.61;68.28;95092.75;5075215;28;20846;-81
2023/08/23 02:42:08;;;;;;;12.90;11.67;;;;;;;24.66;67.95;95096.44;5075716;28;20441;-81
2023/08/23 02:44:34;;;;;;;18.43;12.03;;;;;;;24.70;67.67;95096.81;5039912;28;20836;-80
2023/08/23 02:47:02;;;;;;;13.60;12.20;;;;;;;24.67;67.59;95092.72;5056398;28;20487;-81
2023/08/23 02:49:29;;;;;;;16.07;12.00;;;;;;;24.69;67.59;95096.00;5075521;28;20490;-82
2023/08/23 02:51:56;;;;;;;13.80;12.30;;;;;;;24.72;66.85;95097.44;5040944;28;20463;-81
2023/08/23 02:54:23;;;;;;;13.03;11.40;;;;;;;24.71;67.27;95096.63;5076324;28;20456;-81
2023/08/23 02:56:50;;;;;;;12.33;11.30;;;;;;;24.70;67.59;95105.69;5075480;28;20441;-81
2023/08/23 02:59:17;;;;;;;13.40;12.10;;;;;;;24.59;67.28;95101.00;5075669;28;20804;-80
2023/08/23 03:01:43;;;;;;;12.37;11.20;;;;;;;24.55;67.28;95101.63;5056973;28;20444;-81
2023/08/23 03:04:11;;;;;;;13.13;11.93;;;;;;;24.51;67.86;95106.56;5075644;28;20437;-81
2023/08/23 03:06:38;;;;;;;12.20;10.90;;;;;;;24.46;67.48;95102.88;5074994;28;20444;-78
2023/08/23 03:09:05;;;;;;;13.27;12.10;;;;;;;24.36;68.88;95104.16;5074928;28;20489;-81
2023/08/23 03:11:32;;;;;;;13.20;11.70;;;;;;;24.30;68.66;95104.19;5075142;28;20822;-81
2023/08/23 03:13:59;;;;;;;14.50;13.10;;;;;;;24.09;69.39;95103.34;5039571;28;20440;-81
2023/08/23 03:16:25;;;;;;;14.93;13.03;;;;;;;24.08;70.89;95104.38;5074630;28;20452;-81
2023/08/23 03:18:52;;;;;;;14.37;12.90;;;;;;;24.12;70.73;95103.97;5074607;28;20491;-81
2023/08/23 03:21:20;;;;;;;19.10;13.77;;;;;;;24.13;71.06;95101.06;5074609;28;20444;-81
2023/08/23 03:23:47;;;;;;;14.73;13.20;;;;;;;23.88;71.20;95114.28;5056268;28;20443;-81
2023/08/23 03:26:14;;;;;;;16.37;13.40;;;;;;;23.79;72.49;95110.16;5074583;28;20452;-81
2023/08/23 03:28:41;;;;;;;14.70;13.20;;;;;;;23.77;72.37;95102.34;5038798;28;20506;-81
2023/08/23 03:31:07;;;;;;;13.90;12.53;;;;;;;23.83;72.16;95108.72;5074635;28;20447;-81
2023/08/23 03:33:34;;;;;;;14.37;12.67;;;;;;;23.90;72.32;95106.03;5039160;28;20429;-80
2023/08/23 03:36:01;;;;;;;15.80;12.80;;;;;;;24.00;72.42;95106.47;5074144;28;20458;-81
2023/08/23 03:38:29;;;;;;;16.23;14.10;;;;;;;24.03;71.33;95101.50;5074066;28;20448;-83
2023/08/23 03:40:56;;;;;;;14.97;13.67;;;;;;;24.03;70.96;95106.84;5074078;28;20454;-81
2023/08/23 03:43:23;;;;;;;13.60;12.30;;;;;;;24.01;69.93;95098.19;5074167;28;20445;-81
2023/08/23 03:45:51;;;;;;;13.10;11.70;;;;;;;23.94;69.91;95100.03;5074433;28;20446;-81
2023/08/23 03:48:18;;;;;;;14.70;13.30;;;;;;;23.90;69.70;95098.81;5074271;28;20448;-82
2023/08/23 03:50:45;;;;;;;16.73;12.63;;;;;;;23.79;70.06;95099.44;5074097;28;20441;-82
2023/08/23 03:53:12;;;;;;;14.40;13.07;;;;;;;23.71;70.58;95097.81;5074229;28;20442;-82
2023/08/23 03:55:40;;;;;;;15.63;13.07;;;;;;;23.69;70.58;95099.00;5074138;28;20447;-81
2023/08/23 03:58:07;;;;;;;15.00;13.50;;;;;;;23.67;70.95;95101.91;5074312;28;20955;-81
2023/08/23 04:00:34;;;;;;;17.67;13.10;;;;;;;23.68;70.69;95102.72;5074623;28;20450;-81
2023/08/23 04:03:02;;;;;;;13.80;12.30;;;;;;;23.65;71.03;95097.78;5073855;28;20944;-81
2023/08/23 04:05:29;;;;;;;13.80;12.53;;;;;;;23.73;70.90;95092.25;5039011;28;20446;-81
2023/08/23 04:07:56;;;;;;;13.50;11.87;;;;;;;23.78;71.00;95095.13;5073953;28;20514;-81
2023/08/23 04:10:22;;;;;;;14.33;12.93;;;;;;;23.77;70.86;95098.81;5038192;28;20482;-81
2023/08/23 04:12:50;;;;;;;14.60;13.20;;;;;;;23.75;70.88;95095.53;5054614;28;20439;-81
2023/08/23 04:15:18;;;;;;;13.40;12.10;;;;;;;23.90;70.23;95090.78;5074246;28;20470;-80
2023/08/23 04:17:44;;;;;;;15.93;13.13;;;;;;;23.85;70.94;95097.78;5073685;28;20519;-81
2023/08/23 04:20:13;;;;;;;18.73;14.20;;;;;;;23.58;72.92;95097.78;5061935;28;20447;-82
2023/08/23 04:22:40;;;;;;;17.07;14.70;;;;;;;23.73;72.90;95094.91;5010012;28;20448;-80
2023/08/23 04:25:08;;;;;;;19.80;14.60;;;;;;;23.90;71.96;95101.50;5061847;28;20432;-81
2023/08/23 04:27:35;;;;;;;30.67;14.60;;;;;;;24.09;70.84;95100.66;5063734;28;20451;-80
2023/08/23 04:30:06;;;;;;;18.10;14.50;;;;;;;24.33;70.53;95098.38;5062084;28;20847;-80
2023/08/23 04:32:32;;;;;;;22.90;14.57;;;;;;;24.57;69.31;95107.59;5063007;28;20440;-82
2023/08/23 04:34:59;;;;;;;15.77;14.07;;;;;;;24.82;69.45;95099.66;5063958;28;20445;-82
2023/08/23 04:37:26;;;;;;;17.50;14.40;;;;;;;24.97;68.63;95092.16;5055868;28;20450;-81
2023/08/23 04:39:53;;;;;;;16.27;14.33;;;;;;;25.00;69.47;95102.50;5065911;28;20462;-80
2023/08/23 04:42:20;;;;;;;16.00;13.13;;;;;;;24.99;69.15;95100.88;5022213;28;20445;-85
2023/08/23 04:44:46;;;;;;;17.70;15.47;;;;;;;25.32;68.81;95106.88;5039469;28;20440;-83
2023/08/23 04:47:14;;;;;;;27.43;19.40;;;;;;;26.33;86.24;95110.47;5075043;28;20448;-78
2023/08/23 04:49:41;;;;;;;26.63;19.20;;;;;;;26.64;73.38;95115.75;5073547;28;20487;-83
2023/08/23 04:52:08;;;;;;;17.20;14.73;;;;;;;27.18;67.60;95119.50;5074081;28;20437;-83
2023/08/23 04:54:36;;;;;;;17.73;14.17;;;;;;;27.77;64.32;95120.56;5071158;28;20464;-83
2023/08/23 04:57:04;;;;;;;18.80;14.47;;;;;;;28.20;62.73;95122.94;5073043;28;20878;-81
2023/08/23 04:59:31;;;;;;;21.40;16.73;;;;;;;28.21;62.90;95123.78;5073166;28;20436;-81
2023/08/23 05:01:58;;;;;;;18.07;16.17;;;;;;;28.71;58.01;95118.75;5072993;28;20444;-82
2023/08/23 05:04:26;;;;;;;14.70;13.40;;;;;;;29.00;55.84;95130.47;5073371;28;20852;-82
2023/08/23 05:06:53;;;;;;;12.70;11.50;;;;;;;29.04;55.06;95125.41;5073247;28;20440;-80
2023/08/23 05:09:20;;;;;;;15.07;13.60;;;;;;;29.05;55.12;95122.47;5059692;28;20480;-80
2023/08/23 05:11:47;;;;;;;16.63;13.83;;;;;;;28.75;55.46;95116.38;5072353;28;20433;-81
2023/08/23 05:14:14;;;;;;;18.50;14.30;;;;;;;28.85;57.54;95114.75;5072886;28;20471;-80
2023/08/23 05:16:40;;;;;;;19.07;14.60;;;;;;;29.07;55.73;95117.63;5019866;28;20830;-81
2023/08/23 05:19:07;;;;;;;15.83;13.30;;;;;;;29.14;54.62;95117.50;5068274;28;20851;-81
2023/08/23 05:21:35;;;;;;;17.63;12.03;;;;;;;29.37;55.70;95111.19;5071808;28;20461;-81
2023/08/23 05:24:02;;;;;;;17.67;12.73;;;;;;;29.53;52.91;95105.03;5071900;28;20437;-81
2023/08/23 05:26:29;;;;;;;15.70;12.97;;;;;;;29.89;53.59;95126.25;5072993;28;20452;-81
2023/08/23 05:28:56;;;;;;;14.17;12.17;;;;;;;30.31;51.66;95114.22;5038196;28;20446;-81
2023/08/23 05:31:22;;;;;;;14.57;13.07;;;;;;;30.63;50.56;95117.16;5077189;28;20452;-81
2023/08/23 05:33:49;;;;;;;15.60;12.60;;;;;;;30.79;49.25;95117.13;5076439;28;20451;-81
2023/08/23 05:36:16;;;;;;;14.60;13.07;;;;;;;30.95;50.31;95117.34;5076173;28;20449;-81
2023/08/23 05:38:44;;;;;;;14.67;12.23;;;;;;;31.14;49.75;95107.81;5076144;28;20458;-81
2023/08/23 05:41:11;;;;;;;15.40;12.50;;;;;;;31.36;48.12;95099.69;5076005;28;20455;-81
2023/08/23 05:43:38;;;;;;;15.40;13.90;;;;;;;31.47;47.87;95101.41;5076099;28;20814;-82
2023/08/23 05:46:05;;;;;;;13.83;12.23;;;;;;;31.54;47.81;95106.66;5076642;28;20459;-81
2023/08/23 05:48:34;;;;;;;15.20;13.20;;;;;;;31.66;48.08;95104.59;5076255;28;20546;-81
2023/08/23 05:51:02;;;;;;;14.60;13.07;;;;;;;31.43;47.23;95105.72;5076292;28;20480;-81
2023/08/23 05:53:29;;;;;;;18.27;12.50;;;;;;;31.49;47.14;95104.69;5076138;28;21068;-81
2023/08/23 05:55:57;;;;;;;19.70;12.57;;;;;;;31.52;47.51;95106.09;5076180;28;20927;-81
2023/08/23 05:58:25;;;;;;;14.67;13.10;;;;;;;31.43;48.06;95106.53;5075992;28;20441;-81
2023/08/23 06:00:55;;;;;;;14.70;13.00;;;;;;;31.27;48.39;95112.88;5076017;28;20448;-81
2023/08/23 06:03:21;;;;;;;15.23;13.13;;;;;;;30.72;48.99;95102.94;5076251;28;20506;-81
2023/08/23 06:05:52;;;;;;;15.53;13.27;;;;;;;30.34;50.42;95101.00;5075972;28;20456;-82
2023/08/23 06:08:19;;;;;;;15.07;13.67;;;;;;;30.27;50.30;95107.66;5075945;28;20445;-81
2023/08/23 06:10:46;;;;;;;18.07;13.77;;;;;;;30.21;50.73;95104.88;5076066;28;20488;-81
2023/08/23 06:13:14;;;;;;;13.83;12.53;;;;;;;30.33;51.12;95106.66;5077158;28;20472;-81
2023/08/23 06:15:41;;;;;;;16.63;14.80;;;;;;;30.45;49.81;95110.09;5076457;28;20447;-81
2023/08/23 06:18:08;;;;;;;15.50;14.00;;;;;;;30.46;49.70;95106.34;5023829;28;20468;-81
2023/08/23 06:20:34;;;;;;;19.07;12.00;;;;;;;30.64;50.78;95097.94;5075636;28;20846;-81
2023/08/23 06:23:01;;;;;;;13.83;12.53;;;;;;;31.28;49.53;95103.69;5075619;28;20447;-81
2023/08/23 06:25:29;;;;;;;14.23;12.80;;;;;;;31.77;47.35;95100.13;5075092;28;20448;-80
2023/08/23 06:27:55;;;;;;;14.33;12.87;;;;;;;32.17;46.78;95105.09;5075183;28;20444;-81
2023/08/23 06:30:24;;;;;;;15.53;13.93;;;;;;;32.27;45.54;95103.31;5075251;28;20489;-82
2023/08/23 06:32:50;;;;;;;18.87;15.00;;;;;;;32.16;45.50;95112.44;5075391;28;20946;-81
2023/08/23 06:35:18;;;;;;;14.53;12.77;;;;;;;32.32;46.56;95110.66;5075245;28;20445;-82
2023/08/23 06:37:45;;;;;;;16.23;13.90;;;;;;;32.28;45.63;95112.28;5075633;28;20437;-81
2023/08/23 06:40:13;;;;;;;16.43;14.73;;;;;;;32.15;46.14;95112.69;5074718;28;20448;-81
2023/08/23 06:42:40;;;;;;;15.30;13.70;;;;;;;31.99;45.37;95104.41;5075445;28;20441;-81
2023/08/23 06:45:09;;;;;;;13.80;12.50;;;;;;;31.94;46.75;95100.81;5075408;28;20452;-82
2023/08/23 06:47:38;;;;;;;17.00;13.30;;;;;;;31.56;47.25;95099.91;5075220;28;20520;-81
2023/08/23 06:50:06;;;;;;;17.63;14.00;;;;;;;31.68;48.03;95102.44;5074967;28;20488;-81
2023/08/23 06:52:33;;;;;;;15.03;12.63;;;;;;;31.96;47.96;95104.09;5075040;28;20535;-81
2023/08/23 06:55:00;;;;;;;13.83;12.63;;;;;;;32.26;46.42;95101.66;5075094;28;20825;-82
2023/08/23 06:57:30;;;;;;;14.10;12.80;;;;;;;32.58;46.29;95098.88;5075297;28;20437;-82
2023/08/23 06:59:57;;;;;;;20.73;15.43;;;;;;;32.58;45.36;95101.59;5075984;28;20472;-82
2023/08/23 07:02:24;;;;;;;14.37;13.00;;;;;;;32.65;46.39;95104.91;5075095;28;21041;-81
2023/08/23 07:04:53;;;;;;;15.43;13.70;;;;;;;32.73;43.89;95097.34;5075204;28;20444;-81
2023/08/23 07:07:19;;;;;;;13.50;12.20;;;;;;;32.72;44.77;95107.41;5075262;28;20973;-81
2023/08/23 07:09:46;;;;;;;15.93;13.23;;;;;;;32.86;44.27;95107.78;5074848;28;21010;-81
2023/08/23 07:12:13;;;;;;;17.10;13.93;;;;;;;32.74;44.97;95107.97;5075401;28;20444;-81
2023/08/23 07:14:40;;;;;;;16.93;14.30;;;;;;;32.80;45.54;95106.94;5074965;28;20437;-81
2023/08/23 07:17:07;;;;;;;18.13;14.37;;;;;;;32.72;44.20;95101.16;5056080;28;20476;-81
2023/08/23 07:19:34;;;;;;;16.60;13.93;;;;;;;32.55;44.67;95095.88;5075048;28;20436;-81
2023/08/23 07:22:03;;;;;;;16.90;14.27;;;;;;;32.77;44.52;95112.06;5075039;28;20445;-81
2023/08/23 07:24:31;;;;;;;17.10;13.97;;;;;;;32.96;44.82;95110.53;5075073;28;20810;-82
2023/08/23 07:26:58;;;;;;;18.10;12.80;;;;;;;32.99;43.92;95099.16;5056605;28;20805;-82
2023/08/23 07:29:24;;;;;;;20.70;14.03;;;;;;;32.67;44.28;95107.34;5074514;28;20437;-81
2023/08/23 07:31:51;;;;;;;19.40;14.40;;;;;;;32.75;45.11;95097.91;5074563;28;21038;-82
2023/08/23 07:34:18;;;;;;;15.00;13.70;;;;;;;32.83;45.31;95106.41;5074649;28;20982;-80
2023/08/23 07:36:45;;;;;;;15.60;14.10;;;;;;;32.99;45.75;95091.00;5074721;28;20479;-82
2023/08/23 07:39:13;;;;;;;14.57;13.13;;;;;;;32.95;44.62;95087.16;5074412;28;20449;-81
2023/08/23 07:41:40;;;;;;;22.53;14.10;;;;;;;32.91;43.62;95088.75;5038854;28;20440;-82
2023/08/23 07:44:07;;;;;;;14.20;12.93;;;;;;;32.85;43.69;95092.53;5022942;28;20433;-81
2023/08/23 07:46:34;;;;;;;15.17;13.57;;;;;;;32.88;44.42;95084.69;5022434;28;20814;-81
2023/08/23 07:49:01;;;;;;;16.80;13.90;;;;;;;32.95;43.13;95079.81;5073830;28;20441;-82
2023/08/23 07:51:27;;;;;;;15.70;14.10;;;;;;;33.15;44.16;95087.25;5073336;28;20481;-82
2023/08/23 07:53:54;;;;;;;29.60;13.53;;;;;;;33.29;44.22;95089.47;5073785;28;20445;-82
2023/08/23 07:56:23;;;;;;;28.60;14.83;;;;;;;33.43;44.27;95088.72;5073971;28;20441;-80
2023/08/23 07:58:49;;;;;;;16.10;14.60;;;;;;;33.55;44.23;95088.50;5073787;28;20445;-82
2023/08/23 08:01:16;;;;;;;20.43;14.07;;;;;;;33.45;44.17;95083.81;5021852;28;20919;-80
2023/08/23 08:03:43;;;;;;;15.50;13.87;;;;;;;33.48;43.46;95087.91;5073318;28;20445;-80
2023/08/23 08:06:10;;;;;;;16.27;14.30;;;;;;;33.32;43.92;95088.97;5073582;28;20441;-80
2023/08/23 08:08:39;;;;;;;16.00;13.60;;;;;;;33.31;44.49;95077.28;5073684;28;20425;-81
2023/08/23 08:11:06;;;;;;;14.73;13.33;;;;;;;33.39;44.17;95078.66;5073526;28;20842;-80
2023/08/23 08:13:34;;;;;;;14.80;13.40;;;;;;;33.41;43.88;95076.47;5073791;28;20468;-80
2023/08/23 08:16:07;;;;;;;14.87;13.27;;;;;;;33.50;43.57;95081.09;5073756;28;20437;-81
2023/08/23 08:18:34;;;;;;;17.80;15.90;;;;;;;33.47;43.30;95073.50;5073927;28;20500;-81
2023/08/23 08:21:01;;;;;;;14.77;13.47;;;;;;;33.30;43.53;95056.56;5074892;28;20444;-81
2023/08/23 08:23:27;;;;;;;15.73;13.67;;;;;;;33.42;44.28;95067.22;5074001;28;20459;-80
2023/08/23 08:25:54;;;;;;;18.23;13.73;;;;;;;33.56;43.20;95062.91;5073470;28;20930;-81
2023/08/23 08:28:21;;;;;;;21.17;14.97;;;;;;;33.64;42.21;95070.53;5073489;28;20515;-81
2023/08/23 08:30:49;;;;;;;15.13;13.83;;;;;;;33.69;42.76;95067.81;5021783;28;20483;-81
2023/08/23 08:33:17;;;;;;;17.00;13.40;;;;;;;33.88;43.64;95068.16;5073680;28;20444;-80
2023/08/23 08:35:44;;;;;;;15.13;13.83;;;;;;;34.06;42.49;95064.03;5073263;28;20792;-81
2023/08/23 08:38:11;;;;;;;16.90;15.10;;;;;;;34.16;41.46;95061.34;5073324;28;20452;-81
2023/08/23 08:40:38;;;;;;;16.53;15.13;;;;;;;34.30;42.36;95056.94;5073471;28;20444;-81
2023/08/23 08:43:05;;;;;;;14.93;12.43;;;;;;;34.46;40.90;95063.25;5073936;28;20857;-80
2023/08/23 08:45:32;;;;;;;13.40;12.23;;;;;;;34.42;39.96;95068.44;5073280;28;20440;-81
2023/08/23 08:48:00;;;;;;;16.70;12.97;;;;;;;34.44;40.40;95063.50;5073240;28;20444;-80
2023/08/23 08:50:32;;;;;;;15.73;12.37;;;;;;;34.62;39.99;95058.56;5073402;28;20479;-81
2023/08/23 08:53:01;;;;;;;13.37;12.27;;;;;;;34.68;39.92;95060.97;5073571;28;20483;-81
2023/08/23 08:55:29;;;;;;;13.90;12.70;;;;;;;34.79;40.02;95061.78;5054108;28;20441;-81
2023/08/23 08:57:57;;;;;;;14.63;13.40;;;;;;;34.98;39.67;95051.09;5072670;28;20429;-80
2023/08/23 09:00:26;;;;;;;15.43;13.83;;;;;;;35.05;39.01;95052.44;5073341;28;20444;-81
2023/08/23 09:02:54;;;;;;;14.10;12.80;;;;;;;35.06;38.29;95048.63;5073138;28;20445;-81
2023/08/23 09:05:22;;;;;;;14.63;13.23;;;;;;;35.13;39.08;95042.84;5073367;28;20445;-81
2023/08/23 09:07:51;;;;;;;14.57;12.53;;;;;;;35.21;38.94;95044.19;5073463;28;20444;-81
2023/08/23 09:10:19;;;;;;;16.23;13.50;;;;;;;35.21;38.97;95038.72;5073209;28;20449;-81
2023/08/23 09:12:46;;;;;;;14.80;13.30;;;;;;;35.30;38.61;95035.13;5073665;28;20455;-81
2023/08/23 09:15:13;;;;;;;14.53;11.13;;;;;;;35.19;37.35;95030.81;5073210;28;20444;-81
2023/08/23 09:17:40;;;;;;;11.03;10.07;;;;;;;34.89;35.22;95031.78;5073628;28;20484;-81
2023/08/23 09:20:07;;;;;;;11.13;10.13;;;;;;;34.67;34.86;95023.09;5073053;28;20447;-80
2023/08/23 09:22:36;;;;;;;12.70;11.60;;;;;;;34.48;36.54;95015.53;5072649;28;20437;-80
2023/08/23 09:25:03;;;;;;;11.40;10.43;;;;;;;34.65;37.37;95015.19;5037993;28;20448;-81
2023/08/23 09:27:30;;;;;;;11.30;10.37;;;;;;;34.64;36.15;95010.84;5073316;28;20449;-80
2023/08/23 09:29:59;;;;;;;12.50;11.20;;;;;;;34.69;36.74;95007.28;5073042;28;20838;-80
2023/08/23 09:32:26;;;;;;;11.70;10.60;;;;;;;34.69;36.96;95010.00;5072955;28;20488;-81
2023/08/23 09:34:53;;;;;;;10.90;10.00;;;;;;;34.54;36.58;95008.16;5072831;28;20444;-81
2023/08/23 09:37:20;;;;;;;13.83;11.37;;;;;;;34.58;37.26;94998.31;5072563;28;20432;-80
2023/08/23 09:39:48;;;;;;;12.83;11.40;;;;;;;34.65;36.32;94995.28;5072699;28;20444;-83
2023/08/23 09:42:16;;;;;;;12.73;10.57;;;;;;;34.25;35.63;94993.47;5072858;28;20449;-83
2023/08/23 09:44:46;;;;;;;11.70;10.70;;;;;;;34.05;37.43;94997.88;5037342;28;20429;-84
2023/08/23 09:47:15;;;;;;;11.53;10.53;;;;;;;34.02;37.47;94983.97;5072323;28;20812;-83
2023/08/23 09:49:43;;;;;;;13.07;11.73;;;;;;;34.20;37.57;94974.44;5072238;28;20456;-81
2023/08/23 09:52:12;;;;;;;11.23;10.23;;;;;;;34.37;36.76;94985.84;5037009;28;20939;-81
2023/08/23 09:54:45;;;;;;;11.90;10.73;;;;;;;34.45;36.88;94982.56;5072370;28;20513;-82
2023/08/23 09:57:14;;;;;;;10.77;9.90;;;;;;;34.14;35.71;94984.53;5072923;28;20436;-82
2023/08/23 09:59:42;;;;;;;10.63;9.63;;;;;;;34.17;36.05;94975.78;5073797;28;20441;-82
2023/08/23 10:02:12;;;;;;;11.87;10.77;;;;;;;34.23;35.23;94977.41;5073116;28;20927;-83
2023/08/23 10:04:41;;;;;;;17.50;14.33;;;;;;;34.35;36.64;94969.78;5071020;28;20654;-81
2023/08/23 10:07:08;;;;;;;12.70;11.37;;;;;;;34.52;36.08;94961.28;5072578;28;20490;-81
2023/08/23 10:09:35;;;;;;;15.40;10.27;;;;;;;34.60;35.54;94968.88;5072887;28;20960;-81
2023/08/23 10:12:03;;;;;;;11.53;10.43;;;;;;;34.26;34.91;94971.41;5072986;28;20480;-81
2023/08/23 10:14:32;;;;;;;14.50;12.17;;;;;;;34.33;36.00;94963.75;5072117;28;20452;-83
2023/08/23 10:17:01;;;;;;;11.47;10.37;;;;;;;34.34;34.85;94965.41;5075230;28;20448;-80
2023/08/23 10:19:28;;;;;;;10.20;9.30;;;;;;;34.39;34.68;94962.66;5092127;28;20455;-80
2023/08/23 10:21:55;;;;;;;10.90;9.80;;;;;;;34.52;33.72;94969.47;5044212;28;20462;-79
2023/08/23 10:24:25;;;;;;;13.23;10.23;;;;;;;34.37;33.85;94955.88;5084265;28;20436;-78
2023/08/23 10:26:52;;;;;;;10.90;9.90;;;;;;;34.39;34.34;94949.03;5089721;28;20926;-80
2023/08/23 10:29:25;;;;;;;11.30;10.37;;;;;;;34.47;34.52;94947.66;5089973;28;20428;-80
2023/08/23 10:31:54;;;;;;;11.97;10.87;;;;;;;34.42;35.41;94951.25;5076630;28;20480;-79
2023/08/23 10:34:24;;;;;;;9.77;8.80;;;;;;;34.48;34.24;94950.13;5090540;28;20805;-78
2023/08/23 10:36:53;;;;;;;10.10;9.17;;;;;;;34.55;32.58;94946.28;5087848;28;20444;-79
2023/08/23 10:39:22;;;;;;;9.60;8.70;;;;;;;34.60;32.40;94954.44;5094989;28;20934;-80
2023/08/23 10:41:51;;;;;;;13.90;9.87;;;;;;;34.59;33.80;94950.06;5094480;28;20558;-80
2023/08/23 10:44:18;;;;;;;11.77;9.50;;;;;;;34.64;33.53;94952.78;5092456;28;20918;-78
2023/08/23 10:46:46;;;;;;;12.00;10.13;;;;;;;34.60;33.03;94955.25;5086132;28;20444;-79
2023/08/23 10:49:16;;;;;;;10.33;9.40;;;;;;;34.64;32.53;94945.41;5056832;28;20436;-79
2023/08/23 10:51:43;;;;;;;11.23;10.10;;;;;;;34.70;33.62;94946.22;5085999;28;20484;-80
2023/08/23 10:54:12;;;;;;;12.13;8.90;;;;;;;34.74;32.95;94931.75;5095883;28;20463;-80
2023/08/23 10:56:39;;;;;;;10.57;9.53;;;;;;;34.89;33.79;94927.31;5083341;28;20484;-81
2023/08/23 10:59:07;;;;;;;11.63;9.87;;;;;;;35.01;32.59;94934.09;5083833;28;20915;-79
2023/08/23 11:01:34;;;;;;;10.00;9.20;;;;;;;35.12;31.98;94937.56;5074801;28;20449;-80
2023/08/23 11:04:03;;;;;;;10.80;9.90;;;;;;;34.98;33.82;94948.25;5092039;28;20520;-81
2023/08/23 11:06:32;;;;;;;10.80;9.80;;;;;;;34.61;35.35;94939.69;5094818;28;20487;-80
2023/08/23 11:08:59;;;;;;;13.80;9.70;;;;;;;34.24;36.10;94935.44;5092775;28;20499;-79
2023/08/23 11:11:28;;;;;;;17.03;10.00;;;;;;;33.99;37.40;94935.50;5094634;28;20483;-80
2023/08/23 11:13:55;;;;;;;12.43;10.63;;;;;;;33.99;36.89;94927.34;5094813;28;20435;-81
2023/08/23 11:16:23;;;;;;;22.03;9.87;;;;;;;33.88;36.49;94933.91;5094712;28;20432;-82
2023/08/23 11:18:50;;;;;;;15.43;9.13;;;;;;;33.55;36.09;94931.47;5095530;28;20471;-80